Time;durP1;ratioP1;P1;durP2;ratioP2;P2;SDS_P1;SDS_P2;PMS_P1;PMS_P2;Temp;Humidity;BMP_temperature;BMP_pressure;BME280_temperature;BME280_humidity;BME280_pressure;Samples;Min_cycle;Max_cycle;Signal;HPM_P1;HPM_P2
2022/12/06 00:01:03;;;;;;;7.50;2.75;;;5.60;99.90;;;;;;5041581;28;20039;-72
2022/12/06 00:03:28;;;;;;;8.45;3.08;;;5.70;99.90;;;;;;5052787;28;20591;-72
2022/12/06 00:06:00;;;;;;;10.38;2.67;;;5.70;99.90;;;;;;5037265;28;20080;-72
2022/12/06 00:08:25;;;;;;;8.48;2.75;;;5.60;99.90;;;;;;5053097;28;20045;-72
2022/12/06 00:10:51;;;;;;;8.73;2.70;;;5.60;99.90;;;;;;5053924;28;20044;-72
2022/12/06 00:13:17;;;;;;;10.68;3.38;;;5.70;99.90;;;;;;5036494;28;20496;-73
2022/12/06 00:15:42;;;;;;;10.38;2.90;;;5.60;99.90;;;;;;5053777;28;20037;-72
2022/12/06 00:18:08;;;;;;;9.98;3.20;;;5.60;99.90;;;;;;5053649;28;20119;-72
2022/12/06 00:20:33;;;;;;;10.25;2.80;;;5.60;99.90;;;;;;5053238;28;20037;-72
2022/12/06 00:22:59;;;;;;;7.43;2.97;;;5.50;99.90;;;;;;5037066;28;20090;-72
2022/12/06 00:25:25;;;;;;;9.02;2.65;;;5.50;99.90;;;;;;5052315;28;20459;-72
2022/12/06 00:27:50;;;;;;;10.65;3.13;;;5.50;99.90;;;;;;5073455;28;20078;-72
2022/12/06 00:30:16;;;;;;;9.48;2.40;;;5.50;99.90;;;;;;5073862;28;20037;-72
2022/12/06 00:32:42;;;;;;;7.50;2.80;;;5.50;99.90;;;;;;5056697;28;20036;-72
2022/12/06 00:35:07;;;;;;;8.98;2.75;;;5.50;99.90;;;;;;5053383;28;20055;-73
2022/12/06 00:37:33;;;;;;;8.13;3.08;;;5.50;99.90;;;;;;5073322;28;20417;-72
2022/12/06 00:39:59;;;;;;;9.02;2.97;;;5.50;99.90;;;;;;5073305;28;20082;-72
2022/12/06 00:42:24;;;;;;;9.32;2.75;;;5.40;99.90;;;;;;5053732;28;20066;-72
2022/12/06 00:44:50;;;;;;;6.78;2.90;;;5.40;99.90;;;;;;5058507;28;20064;-72
2022/12/06 00:47:15;;;;;;;7.85;2.60;;;5.40;99.90;;;;;;5039145;28;20036;-72
2022/12/06 00:49:41;;;;;;;10.27;3.03;;;5.40;99.90;;;;;;5056631;28;20488;-72
2022/12/06 00:52:07;;;;;;;7.18;3.15;;;5.40;99.90;;;;;;5056412;28;20047;-72
2022/12/06 00:54:32;;;;;;;9.15;2.63;;;5.40;99.90;;;;;;5060556;28;20102;-73
2022/12/06 00:56:58;;;;;;;7.10;2.28;;;5.50;99.90;;;;;;5036666;28;20554;-73
2022/12/06 00:59:23;;;;;;;9.00;2.97;;;5.40;99.90;;;;;;5036365;28;20040;-73
2022/12/06 01:01:49;;;;;;;10.65;2.90;;;5.40;99.90;;;;;;5065981;28;20036;-73
2022/12/06 01:04:15;;;;;;;8.93;2.85;;;5.40;99.90;;;;;;5046385;28;20111;-73
2022/12/06 01:06:40;;;;;;;7.20;2.90;;;5.40;99.90;;;;;;5036142;28;20463;-73
2022/12/06 01:09:08;;;;;;;7.60;2.80;;;5.40;99.90;;;;;;5036022;28;20458;-73
2022/12/06 01:11:34;;;;;;;10.20;3.17;;;5.40;99.90;;;;;;5052729;28;20090;-73
2022/12/06 01:14:00;;;;;;;8.70;3.17;;;5.40;99.90;;;;;;5051786;28;20044;-73
2022/12/06 01:16:29;;;;;;;9.40;3.38;;;5.40;99.90;;;;;;5051808;28;20119;-73
2022/12/06 01:18:58;;;;;;;7.93;2.65;;;5.50;99.90;;;;;;5035283;28;20128;-73
2022/12/06 01:21:24;;;;;;;8.07;3.00;;;5.40;99.90;;;;;;5052544;28;20047;-73
2022/12/06 01:23:50;;;;;;;7.70;2.60;;;5.50;99.90;;;;;;5051614;28;20041;-73
2022/12/06 01:26:35;;;;;;;6.43;2.40;;;5.40;99.90;;;;;;5036195;28;20464;-73
2022/12/06 01:29:01;;;;;;;6.47;2.72;;;5.40;99.90;;;;;;5057318;28;20047;-73
2022/12/06 01:31:28;;;;;;;8.75;2.63;;;5.40;99.90;;;;;;5053959;28;20510;-72
2022/12/06 01:33:53;;;;;;;8.40;2.72;;;5.50;99.90;;;;;;5047170;28;20048;-72
2022/12/06 01:36:22;;;;;;;6.90;2.60;;;5.50;99.90;;;;;;5052580;28;20048;-72
2022/12/06 01:38:52;;;;;;;8.20;2.20;;;5.50;99.90;;;;;;5039931;28;20037;-72
2022/12/06 01:41:19;;;;;;;6.68;2.28;;;5.50;99.90;;;;;;5055854;28;20167;-72
2022/12/06 01:43:46;;;;;;;6.32;1.98;;;5.50;99.90;;;;;;5048646;28;20405;-72
2022/12/06 01:46:43;;;;;;;6.20;2.08;;;5.50;99.90;;;;;;5052140;28;20123;-72
2022/12/06 01:49:11;;;;;;;5.28;1.85;;;5.40;99.90;;;;;;5019177;28;20394;-72
2022/12/06 01:51:39;;;;;;;5.93;1.95;;;5.50;99.90;;;;;;5052126;28;20036;-72
2022/12/06 01:54:09;;;;;;;4.93;1.80;;;5.50;99.90;;;;;;5034529;28;20494;-72
2022/12/06 01:56:36;;;;;;;5.95;1.65;;;5.50;99.90;;;;;;5035461;28;20076;-72
2022/12/06 01:59:02;;;;;;;5.53;1.60;;;5.50;99.90;;;;;;5041672;28;20041;-72
2022/12/06 02:01:29;;;;;;;6.15;1.70;;;5.40;99.90;;;;;;5072254;28;20043;-72
2022/12/06 02:03:56;;;;;;;5.75;1.63;;;5.40;99.90;;;;;;5063837;28;20057;-72
2022/12/06 02:06:22;;;;;;;7.40;1.88;;;5.40;99.90;;;;;;5051816;28;20048;-73
2022/12/06 02:08:49;;;;;;;7.43;1.73;;;5.40;99.90;;;;;;5056190;28;20044;-72
2022/12/06 02:11:15;;;;;;;5.15;1.75;;;5.40;99.90;;;;;;5055506;28;20106;-73
2022/12/06 02:13:41;;;;;;;4.00;1.17;;;5.40;99.90;;;;;;5066020;28;20041;-72
2022/12/06 02:16:31;;;;;;;5.13;1.23;;;5.40;99.90;;;;;;5051750;28;20037;-72
2022/12/06 02:19:21;;;;;;;4.18;1.30;;;5.40;99.90;;;;;;5040736;28;20083;-73
2022/12/06 02:21:52;;;;;;;3.65;1.40;;;5.40;99.90;;;;;;5055037;28;20123;-73
2022/12/06 02:24:55;;;;;;;2.47;1.10;;;5.40;99.90;;;;;;5058017;28;20040;-73
2022/12/06 02:27:30;;;;;;;5.03;1.17;;;5.40;99.90;;;;;;5054017;28;20033;-72
2022/12/06 02:30:08;;;;;;;2.75;1.02;;;5.30;99.90;;;;;;5054900;28;20037;-72
2022/12/06 02:32:50;;;;;;;3.67;1.25;;;5.30;99.90;;;;;;5055289;28;20454;-72
2022/12/06 02:35:21;;;;;;;2.95;0.90;;;5.30;99.90;;;;;;5052784;28;20036;-73
2022/12/06 02:38:11;;;;;;;2.93;1.10;;;5.40;99.90;;;;;;5054981;28;20485;-72
2022/12/06 02:40:42;;;;;;;2.30;0.90;;;5.30;99.90;;;;;;5071191;28;20267;-72
2022/12/06 02:43:16;;;;;;;3.25;1.00;;;5.30;99.90;;;;;;5063708;28;20041;-72
2022/12/06 02:45:51;;;;;;;3.58;1.08;;;5.30;99.90;;;;;;5038969;28;20037;-73
2022/12/06 02:48:18;;;;;;;2.85;0.90;;;5.30;99.90;;;;;;5055628;28;20135;-72
2022/12/06 02:50:48;;;;;;;2.10;0.90;;;5.30;99.90;;;;;;5075420;28;20071;-73
2022/12/06 02:53:18;;;;;;;4.40;1.23;;;5.30;99.90;;;;;;5070154;28;20033;-72
2022/12/06 02:55:45;;;;;;;2.10;1.02;;;5.30;99.90;;;;;;5039026;28;20557;-72
2022/12/06 02:58:10;;;;;;;2.38;0.90;;;5.30;99.90;;;;;;5055002;28;20110;-72
2022/12/06 03:00:37;;;;;;;2.95;0.95;;;5.20;99.90;;;;;;5040551;28;20479;-72
2022/12/06 03:03:09;;;;;;;3.80;0.88;;;5.20;99.90;;;;;;5070287;28;20076;-72
2022/12/06 03:05:53;;;;;;;2.47;0.90;;;5.20;99.90;;;;;;5055545;28;20431;-72
2022/12/06 03:08:33;;;;;;;1.75;0.75;;;5.20;99.90;;;;;;5055645;28;20045;-72
2022/12/06 03:11:01;;;;;;;1.73;0.82;;;5.20;99.90;;;;;;5058491;28;20123;-72
2022/12/06 03:13:49;;;;;;;2.65;0.90;;;5.20;99.90;;;;;;5068176;28;20052;-73
2022/12/06 03:16:26;;;;;;;2.92;1.00;;;5.20;99.90;;;;;;5016337;28;20047;-73
2022/12/06 03:19:02;;;;;;;2.35;0.90;;;5.20;99.90;;;;;;5059973;28;20040;-73
2022/12/06 03:21:35;;;;;;;2.83;0.73;;;5.30;99.90;;;;;;5074840;28;20489;-73
2022/12/06 03:24:06;;;;;;;2.67;1.20;;;5.20;99.90;;;;;;5049469;28;20098;-73
2022/12/06 03:26:33;;;;;;;3.40;1.27;;;5.20;99.90;;;;;;5055071;28;20445;-72
2022/12/06 03:29:02;;;;;;;2.38;1.00;;;5.20;99.90;;;;;;5042830;28;20129;-72
2022/12/06 03:31:31;;;;;;;4.82;1.13;;;5.20;99.90;;;;;;5046204;28;20408;-73
2022/12/06 03:34:09;;;;;;;3.83;1.25;;;5.20;99.90;;;;;;5053647;28;20044;-73
2022/12/06 03:36:35;;;;;;;3.17;1.30;;;5.20;99.90;;;;;;5038272;28;20381;-72
2022/12/06 03:39:03;;;;;;;2.83;1.10;;;5.20;99.90;;;;;;5060646;28;20527;-73
2022/12/06 03:41:39;;;;;;;3.28;1.20;;;5.20;99.90;;;;;;5057882;28;20048;-72
2022/12/06 03:44:04;;;;;;;3.15;1.40;;;5.20;99.90;;;;;;5049255;28;20044;-72
2022/12/06 03:46:35;;;;;;;1.77;1.13;;;5.20;99.90;;;;;;5054571;28;20159;-72
2022/12/06 03:49:06;;;;;;;2.72;1.00;;;5.20;99.90;;;;;;5060438;28;20066;-72
2022/12/06 03:51:34;;;;;;;3.22;1.10;;;5.20;99.90;;;;;;5057597;28;20044;-73
2022/12/06 03:54:04;;;;;;;3.70;1.20;;;5.20;99.90;;;;;;5065719;28;20036;-73
2022/12/06 03:56:30;;;;;;;2.17;1.10;;;5.30;99.90;;;;;;5037430;28;20045;-72
2022/12/06 03:58:56;;;;;;;2.08;1.08;;;5.30;99.90;;;;;;5059797;28;20075;-73
2022/12/06 04:01:22;;;;;;;3.03;1.08;;;5.30;99.90;;;;;;5074392;28;20125;-72
2022/12/06 04:03:48;;;;;;;2.85;1.10;;;5.30;99.90;;;;;;5051034;28;20057;-73
2022/12/06 04:06:14;;;;;;;3.78;1.20;;;5.30;99.90;;;;;;5037367;28;20048;-72
2022/12/06 04:08:39;;;;;;;3.60;1.30;;;5.30;99.90;;;;;;5040898;28;20040;-72
2022/12/06 04:11:05;;;;;;;3.30;1.00;;;5.30;99.90;;;;;;5057099;28;20040;-73
2022/12/06 04:13:31;;;;;;;5.07;1.40;;;5.30;99.90;;;;;;5070280;28;20056;-72
2022/12/06 04:15:58;;;;;;;5.20;1.30;;;5.30;99.90;;;;;;5053695;28;20073;-73
2022/12/06 04:18:24;;;;;;;4.90;1.23;;;5.30;99.90;;;;;;5054867;28;20037;-73
2022/12/06 04:23:50;;;;;;;1.75;1.00;;;5.20;99.90;;;;;;5067877;28;20444;-73
2022/12/06 04:26:18;;;;;;;3.60;1.35;;;5.20;99.90;;;;;;5053777;28;20073;-73
2022/12/06 04:39:42;;;;;;;3.88;2.00;;;5.10;99.90;;;;;;5072187;28;20048;-73
2022/12/06 04:44:54;;;;;;;2.92;1.30;;;5.10;99.90;;;;;;5058118;28;20041;-73
2022/12/06 04:47:19;;;;;;;1.60;1.02;;;5.00;99.90;;;;;;5052040;28;20085;-73
2022/12/06 04:49:45;;;;;;;5.75;1.40;;;5.00;99.90;;;;;;5056333;28;20480;-73
2022/12/06 04:52:11;;;;;;;3.28;1.02;;;5.00;99.90;;;;;;5073197;28;20052;-73
2022/12/06 04:54:38;;;;;;;3.65;1.20;;;5.00;99.90;;;;;;5043508;28;20044;-73
2022/12/06 04:57:09;;;;;;;2.78;1.10;;;4.90;99.90;;;;;;5053121;28;20504;-73
2022/12/06 04:59:37;;;;;;;3.35;1.10;;;4.90;99.90;;;;;;5053021;28;20048;-73
2022/12/06 05:02:03;;;;;;;3.47;0.93;;;4.90;99.90;;;;;;5052973;28;20068;-73
2022/12/06 05:04:29;;;;;;;1.23;0.95;;;4.80;99.90;;;;;;5051871;28;20059;-73
2022/12/06 05:06:55;;;;;;;1.48;0.82;;;4.80;99.90;;;;;;5035323;28;20041;-72
2022/12/06 05:09:21;;;;;;;2.17;1.17;;;4.70;99.90;;;;;;5052130;28;20043;-72
2022/12/06 05:11:46;;;;;;;2.28;0.98;;;4.70;99.90;;;;;;5036124;28;20041;-72
2022/12/06 05:14:12;;;;;;;3.05;1.38;;;4.70;99.90;;;;;;5035241;28;20413;-73
2022/12/06 05:16:37;;;;;;;2.97;1.40;;;4.60;99.90;;;;;;5052693;28;20116;-72
2022/12/06 05:19:03;;;;;;;9.32;1.50;;;4.60;99.90;;;;;;5059126;28;20039;-73
2022/12/06 05:21:29;;;;;;;2.63;1.30;;;4.60;99.90;;;;;;5053191;28;20561;-73
2022/12/06 05:23:55;;;;;;;4.93;1.60;;;4.60;99.90;;;;;;5064132;28;20511;-73
2022/12/06 05:26:24;;;;;;;2.97;1.20;;;4.60;99.90;;;;;;5035936;28;20044;-72
2022/12/06 05:28:50;;;;;;;3.92;1.30;;;4.60;99.90;;;;;;5057838;28;20460;-72
2022/12/06 05:31:16;;;;;;;3.95;1.40;;;4.50;99.90;;;;;;5072287;28;20044;-73
2022/12/06 05:33:42;;;;;;;2.22;1.30;;;4.50;99.90;;;;;;5066962;28;20033;-72
2022/12/06 05:36:09;;;;;;;4.30;1.50;;;4.40;99.90;;;;;;5035992;28;20043;-72
2022/12/06 05:38:35;;;;;;;4.43;1.73;;;4.40;99.90;;;;;;5052574;28;20045;-73
2022/12/06 05:41:02;;;;;;;2.85;1.42;;;4.40;99.90;;;;;;5052419;28;20049;-73
2022/12/06 05:43:28;;;;;;;6.80;1.85;;;4.40;99.90;;;;;;5050741;28;20037;-73
2022/12/06 05:45:54;;;;;;;3.40;1.50;;;4.30;99.90;;;;;;5035869;28;20068;-72
2022/12/06 05:48:20;;;;;;;3.72;1.52;;;4.40;99.90;;;;;;5051418;28;20045;-73
2022/12/06 05:50:47;;;;;;;3.50;1.50;;;4.30;99.90;;;;;;5052090;28;20134;-73
2022/12/06 05:53:13;;;;;;;4.05;1.77;;;4.30;99.90;;;;;;5051345;28;20040;-72
2022/12/06 05:55:39;;;;;;;3.50;1.40;;;4.40;99.90;;;;;;5055683;28;20036;-72
2022/12/06 05:58:05;;;;;;;3.83;1.40;;;4.30;99.90;;;;;;5072032;28;20037;-72
2022/12/06 06:00:30;;;;;;;3.88;1.60;;;4.30;99.90;;;;;;5055488;28;20044;-72
2022/12/06 06:02:56;;;;;;;3.92;1.45;;;4.30;99.90;;;;;;5070297;28;20512;-72
2022/12/06 06:05:22;;;;;;;5.95;1.70;;;4.30;99.90;;;;;;5071920;28;20079;-73
2022/12/06 06:07:47;;;;;;;4.22;1.73;;;4.20;99.90;;;;;;5071861;28;20037;-72
2022/12/06 06:10:13;;;;;;;5.03;1.67;;;4.30;99.90;;;;;;5068897;28;20041;-73
2022/12/06 06:12:39;;;;;;;3.50;1.65;;;4.30;99.90;;;;;;5055560;28;20471;-73
2022/12/06 06:15:06;;;;;;;5.07;1.65;;;4.30;99.90;;;;;;5035046;28;20048;-73
2022/12/06 06:17:35;;;;;;;6.05;1.65;;;4.30;99.90;;;;;;5053361;28;20051;-73
2022/12/06 06:20:04;;;;;;;3.70;1.40;;;4.30;99.90;;;;;;5072823;28;20036;-73
2022/12/06 06:22:34;;;;;;;4.03;1.50;;;4.30;99.90;;;;;;5061648;28;20036;-72
2022/12/06 06:25:00;;;;;;;3.75;1.42;;;4.20;99.90;;;;;;5059084;28;20080;-73
2022/12/06 06:27:27;;;;;;;7.05;1.60;;;4.20;99.90;;;;;;5058339;28;20033;-72
2022/12/06 06:29:53;;;;;;;4.25;1.45;;;4.20;99.90;;;;;;5072341;28;20117;-72
2022/12/06 06:32:18;;;;;;;5.97;1.70;;;4.20;99.90;;;;;;5076104;28;20478;-72
2022/12/06 06:34:44;;;;;;;5.75;1.75;;;4.20;99.90;;;;;;5061146;28;20078;-73
2022/12/06 06:37:10;;;;;;;2.80;1.40;;;4.10;99.90;;;;;;5058555;28;20037;-72
2022/12/06 06:39:36;;;;;;;4.70;1.75;;;4.10;99.90;;;;;;5068878;28;20044;-72
2022/12/06 06:42:01;;;;;;;2.72;1.50;;;4.20;99.90;;;;;;5061786;28;20040;-72
2022/12/06 06:44:27;;;;;;;3.83;1.50;;;4.10;99.90;;;;;;5047013;28;20047;-72
2022/12/06 06:46:52;;;;;;;3.53;1.52;;;4.10;99.90;;;;;;5041113;28;20040;-72
2022/12/06 06:49:18;;;;;;;4.70;1.80;;;4.10;99.90;;;;;;5041646;28;20049;-73
2022/12/06 06:51:44;;;;;;;3.38;1.60;;;4.10;99.90;;;;;;5058116;28;20548;-72
2022/12/06 06:54:11;;;;;;;5.15;1.80;;;4.20;99.90;;;;;;5047122;28;20076;-73
2022/12/06 06:56:37;;;;;;;2.65;1.50;;;4.00;99.90;;;;;;5078431;28;20423;-72
2022/12/06 06:59:03;;;;;;;3.15;1.60;;;4.00;99.90;;;;;;5060660;28;20085;-72
2022/12/06 07:01:29;;;;;;;5.35;1.58;;;4.00;99.90;;;;;;5061597;28;20131;-72
2022/12/06 07:03:55;;;;;;;2.28;1.30;;;4.00;99.90;;;;;;5051624;28;20049;-72
2022/12/06 07:06:20;;;;;;;4.55;1.50;;;4.00;99.90;;;;;;5041499;28;20056;-72
2022/12/06 07:08:46;;;;;;;4.53;1.90;;;4.00;99.90;;;;;;5057405;28;20033;-73
2022/12/06 07:11:13;;;;;;;4.20;1.60;;;4.00;99.90;;;;;;5067849;28;20032;-72
2022/12/06 07:13:41;;;;;;;4.05;2.10;;;4.00;99.90;;;;;;5017104;28;20049;-72
2022/12/06 07:16:11;;;;;;;4.72;1.50;;;3.90;99.90;;;;;;5056849;28;20512;-73
2022/12/06 07:18:37;;;;;;;3.95;1.80;;;3.90;99.90;;;;;;5057123;28;20509;-73
2022/12/06 07:21:05;;;;;;;4.65;1.52;;;3.90;99.90;;;;;;5060566;28;20037;-73
2022/12/06 07:23:32;;;;;;;3.50;1.70;;;3.90;99.90;;;;;;5063052;28;20125;-72
2022/12/06 07:26:10;;;;;;;5.38;1.80;;;3.80;99.90;;;;;;5075578;28;20040;-73
2022/12/06 07:28:38;;;;;;;3.35;1.67;;;3.80;99.90;;;;;;5054911;28;20045;-72
2022/12/06 07:31:21;;;;;;;3.67;1.90;;;3.80;99.90;;;;;;5064895;28;20043;-72
2022/12/06 07:33:51;;;;;;;3.63;1.85;;;3.80;99.90;;;;;;5042286;28;20037;-72
2022/12/06 07:36:16;;;;;;;3.55;1.77;;;3.80;99.90;;;;;;5064340;28;20044;-73
2022/12/06 07:38:46;;;;;;;4.97;1.92;;;3.70;99.90;;;;;;5058940;28;20040;-73
2022/12/06 07:46:42;;;;;;;7.25;1.48;;;3.60;99.90;;;;;;5053540;28;20049;-72
2022/12/06 07:49:08;;;;;;;19.27;1.90;;;3.60;99.90;;;;;;5065572;28;20075;-72
2022/12/06 07:51:34;;;;;;;2.40;1.10;;;3.60;99.90;;;;;;5070270;28;20045;-72
2022/12/06 07:54:01;;;;;;;1.95;0.98;;;3.50;99.90;;;;;;5038592;28;20535;-73
2022/12/06 07:56:26;;;;;;;1.92;1.00;;;3.50;99.90;;;;;;5064269;28;20537;-72
2022/12/06 07:58:52;;;;;;;1.90;1.00;;;3.50;99.90;;;;;;5048826;28;20167;-73
2022/12/06 08:01:18;;;;;;;1.00;0.70;;;3.40;99.90;;;;;;5047539;28;20064;-73
2022/12/06 08:03:44;;;;;;;2.30;1.00;;;3.40;99.90;;;;;;5053120;28;20493;-72
2022/12/06 08:06:09;;;;;;;3.95;1.17;;;3.40;99.90;;;;;;5037212;28;20075;-73
2022/12/06 08:08:36;;;;;;;2.75;1.20;;;3.40;99.90;;;;;;5059412;28;20048;-73
2022/12/06 08:11:04;;;;;;;1.27;1.10;;;3.40;99.90;;;;;;5036111;28;20067;-73
2022/12/06 08:13:31;;;;;;;1.35;0.80;;;3.30;99.90;;;;;;5058354;28;20040;-73
2022/12/06 08:15:56;;;;;;;3.05;0.80;;;3.30;99.90;;;;;;5037225;28;20045;-73
2022/12/06 08:18:22;;;;;;;2.78;1.00;;;3.30;99.90;;;;;;5036639;28;20032;-73
2022/12/06 08:20:49;;;;;;;3.88;1.30;;;3.20;99.90;;;;;;5054183;28;20039;-73
2022/12/06 08:23:14;;;;;;;2.30;1.00;;;3.10;99.90;;;;;;5053955;28;20064;-73
2022/12/06 08:25:40;;;;;;;2.33;1.08;;;3.00;99.90;;;;;;5036227;28;20091;-73
2022/12/06 08:28:05;;;;;;;3.40;1.30;;;3.10;99.90;;;;;;5063924;28;20047;-73
2022/12/06 08:30:31;;;;;;;5.85;1.65;;;3.10;99.90;;;;;;5047698;28;20037;-73
2022/12/06 08:32:57;;;;;;;3.67;1.60;;;3.10;99.90;;;;;;5050228;28;20128;-73
2022/12/06 08:35:22;;;;;;;3.75;1.77;;;3.10;99.90;;;;;;5041706;28;20047;-73
2022/12/06 08:37:48;;;;;;;4.50;2.15;;;3.10;99.90;;;;;;5052673;28;20079;-73
2022/12/06 08:40:13;;;;;;;3.95;2.10;;;3.10;99.90;;;;;;5064468;28;20040;-73
2022/12/06 08:42:40;;;;;;;4.47;2.17;;;3.10;99.90;;;;;;5054751;28;20123;-73
2022/12/06 08:45:07;;;;;;;5.22;2.13;;;3.20;99.90;;;;;;5055767;28;20041;-73
2022/12/06 08:47:33;;;;;;;4.97;2.20;;;3.20;99.90;;;;;;5037022;28;20039;-73
2022/12/06 08:49:58;;;;;;;5.32;2.35;;;3.30;99.90;;;;;;5043644;28;20130;-73
2022/12/06 08:52:24;;;;;;;5.45;2.47;;;3.30;99.90;;;;;;5062563;28;20040;-73
2022/12/06 08:54:49;;;;;;;5.80;2.42;;;3.30;99.90;;;;;;5034260;28;20040;-73
2022/12/06 08:57:15;;;;;;;6.05;2.65;;;3.40;99.90;;;;;;5054744;28;20032;-73
2022/12/06 08:59:41;;;;;;;5.93;2.67;;;3.50;99.90;;;;;;5058159;28;20040;-73
2022/12/06 09:02:10;;;;;;;4.95;2.40;;;3.60;99.90;;;;;;5054258;28;20032;-73
2022/12/06 09:04:35;;;;;;;6.28;2.75;;;3.60;99.90;;;;;;5051554;28;20061;-73
2022/12/06 09:07:01;;;;;;;5.78;3.08;;;3.70;99.90;;;;;;5038318;28;20047;-73
2022/12/06 09:09:26;;;;;;;8.32;2.67;;;3.80;99.90;;;;;;5037615;28;20104;-73
2022/12/06 09:11:52;;;;;;;6.78;2.60;;;3.80;99.90;;;;;;5051447;28;20045;-73
2022/12/06 09:14:18;;;;;;;5.63;2.63;;;3.90;99.90;;;;;;5042637;28;20456;-73
2022/12/06 09:16:44;;;;;;;7.68;2.80;;;4.00;99.90;;;;;;5038547;28;20079;-73
2022/12/06 09:19:11;;;;;;;5.40;2.30;;;4.00;99.90;;;;;;5062416;28;20103;-73
2022/12/06 09:21:38;;;;;;;4.95;2.28;;;4.10;99.90;;;;;;5052631;28;20072;-73
2022/12/06 09:24:04;;;;;;;7.90;3.20;;;4.10;99.90;;;;;;5037679;28;20083;-73
2022/12/06 09:26:30;;;;;;;6.10;2.55;;;4.10;99.90;;;;;;5035992;28;20059;-73
2022/12/06 09:28:57;;;;;;;5.75;2.55;;;4.20;99.90;;;;;;5064722;28;20041;-73
2022/12/06 09:31:23;;;;;;;6.63;2.45;;;4.20;99.90;;;;;;5052524;28;20040;-73
2022/12/06 09:33:50;;;;;;;7.07;2.90;;;4.20;99.90;;;;;;5064585;28;20036;-73
2022/12/06 09:36:23;;;;;;;7.40;2.80;;;4.20;99.90;;;;;;5052278;28;20037;-73
2022/12/06 09:38:57;;;;;;;8.10;3.00;;;4.30;99.90;;;;;;5071933;28;20044;-73
2022/12/06 09:41:57;;;;;;;8.80;2.83;;;4.30;99.90;;;;;;5039951;28;20037;-73
2022/12/06 09:44:29;;;;;;;8.00;2.55;;;4.30;99.90;;;;;;5051294;28;20084;-73
2022/12/06 09:47:22;;;;;;;8.88;2.72;;;4.40;99.90;;;;;;5041664;28;20509;-73
2022/12/06 09:50:07;;;;;;;6.85;2.85;;;4.40;99.90;;;;;;5045862;28;20044;-73
2022/12/06 09:52:48;;;;;;;7.95;2.80;;;4.40;99.90;;;;;;5065735;28;20508;-73
2022/12/06 09:55:28;;;;;;;7.25;2.65;;;4.40;99.90;;;;;;5030814;28;20549;-73
2022/12/06 09:57:59;;;;;;;6.72;2.50;;;4.40;99.90;;;;;;5038849;28;20155;-74
2022/12/06 10:00:28;;;;;;;5.53;2.50;;;4.40;99.90;;;;;;5051945;28;20126;-73
2022/12/06 10:03:26;;;;;;;8.30;2.83;;;4.40;99.90;;;;;;5039054;28;20056;-73
2022/12/06 10:06:07;;;;;;;7.13;2.58;;;4.50;99.90;;;;;;5034710;28;20116;-73
2022/12/06 10:08:55;;;;;;;5.93;2.40;;;4.60;99.90;;;;;;5040247;28;20071;-73
2022/12/06 10:11:50;;;;;;;6.68;2.60;;;4.70;99.90;;;;;;5035149;28;20045;-73
2022/12/06 10:14:25;;;;;;;7.20;2.58;;;4.80;99.90;;;;;;5006519;28;20047;-73
2022/12/06 10:17:22;;;;;;;4.65;2.20;;;4.90;99.90;;;;;;5055651;28;20045;-74
2022/12/06 10:19:53;;;;;;;7.10;2.55;;;5.00;99.90;;;;;;5062393;28;20409;-74
2022/12/06 10:22:37;;;;;;;8.32;2.25;;;5.10;99.90;;;;;;5054061;28;20094;-74
2022/12/06 10:25:08;;;;;;;7.65;2.63;;;5.10;99.90;;;;;;5038897;28;20044;-74
2022/12/06 10:27:59;;;;;;;8.37;2.33;;;5.20;99.90;;;;;;5052363;28;20497;-74
2022/12/06 10:30:24;;;;;;;5.70;2.53;;;5.20;99.90;;;;;;5050668;28;20280;-73
2022/12/06 10:33:22;;;;;;;7.68;2.78;;;5.30;99.90;;;;;;5052613;28;20563;-74
2022/12/06 10:35:54;;;;;;;8.63;2.65;;;5.30;99.90;;;;;;5020617;28;20064;-74
2022/12/06 10:39:03;;;;;;;8.18;2.38;;;5.50;99.90;;;;;;5055328;28;20067;-74
2022/12/06 10:41:39;;;;;;;6.60;2.75;;;5.50;99.90;;;;;;4994347;28;20429;-74
2022/12/06 10:44:34;;;;;;;8.25;2.60;;;5.60;99.90;;;;;;4988571;28;20431;-74
2022/12/06 10:47:03;;;;;;;8.48;2.67;;;5.60;99.90;;;;;;5023368;28;20056;-74
2022/12/06 10:49:38;;;;;;;5.13;2.15;;;5.70;99.90;;;;;;5036274;28;20533;-74
2022/12/06 10:52:23;;;;;;;6.35;2.60;;;5.70;99.90;;;;;;5050894;28;20033;-74
2022/12/06 10:54:51;;;;;;;6.65;2.22;;;5.80;99.90;;;;;;5038798;28;20039;-74
2022/12/06 10:57:24;;;;;;;6.63;2.00;;;5.80;99.90;;;;;;5051367;28;20512;-74
2022/12/06 10:59:59;;;;;;;6.70;2.20;;;5.90;99.90;;;;;;5041873;28;20037;-74
2022/12/06 11:02:36;;;;;;;5.32;1.90;;;5.90;99.90;;;;;;5050306;28;20032;-74
2022/12/06 11:05:09;;;;;;;7.82;2.50;;;5.90;99.90;;;;;;5048932;28;20045;-74
2022/12/06 11:07:40;;;;;;;5.43;2.15;;;6.00;99.90;;;;;;5037945;28;20051;-74
2022/12/06 11:10:23;;;;;;;6.97;2.10;;;5.90;99.90;;;;;;5018227;28;20050;-73
2022/12/06 11:12:57;;;;;;;9.07;2.35;;;5.90;99.90;;;;;;5049948;28;20385;-73
2022/12/06 11:15:30;;;;;;;6.00;1.80;;;5.90;99.90;;;;;;5034748;28;20045;-74
2022/12/06 11:18:04;;;;;;;6.20;2.30;;;6.00;99.90;;;;;;5036434;28;20049;-74
2022/12/06 11:20:38;;;;;;;5.70;2.00;;;5.90;99.90;;;;;;5057777;28;20523;-73
2022/12/06 11:23:26;;;;;;;5.93;1.92;;;6.00;99.90;;;;;;5044290;28;20044;-73
2022/12/06 11:26:03;;;;;;;6.50;1.80;;;6.10;99.90;;;;;;5018770;28;20038;-74
2022/12/06 11:28:40;;;;;;;4.63;1.80;;;6.20;99.90;;;;;;5025657;28;20036;-74
2022/12/06 11:31:13;;;;;;;5.53;2.22;;;6.20;99.90;;;;;;5060331;28;20131;-75
2022/12/06 11:33:39;;;;;;;7.32;2.45;;;6.20;99.90;;;;;;5044522;28;20037;-73
2022/12/06 11:36:07;;;;;;;7.13;2.42;;;6.10;99.90;;;;;;5052303;28;20033;-74
2022/12/06 11:38:35;;;;;;;4.50;1.90;;;6.10;99.90;;;;;;5074155;28;20072;-72
2022/12/06 11:41:03;;;;;;;5.15;2.03;;;6.10;99.90;;;;;;5067175;28;20041;-73
2022/12/06 11:43:33;;;;;;;6.53;2.10;;;6.10;99.90;;;;;;5036960;28;20037;-74
2022/12/06 11:45:59;;;;;;;7.20;2.10;;;6.10;99.90;;;;;;5058434;28;20052;-71
2022/12/06 11:48:29;;;;;;;3.92;1.92;;;6.10;99.90;;;;;;5055105;28;20044;-71
2022/12/06 11:50:55;;;;;;;5.68;2.30;;;6.10;99.90;;;;;;5047093;28;20051;-73
2022/12/06 11:53:24;;;;;;;6.15;1.85;;;6.10;99.90;;;;;;5048909;28;20033;-73
2022/12/06 11:55:52;;;;;;;5.38;2.40;;;6.10;99.90;;;;;;5053618;28;20056;-71
2022/12/06 11:58:33;;;;;;;4.53;2.15;;;6.10;99.90;;;;;;5067947;28;20036;-73
2022/12/06 12:01:09;;;;;;;4.45;1.85;;;6.20;99.90;;;;;;5051413;28;20054;-72
2022/12/06 12:03:37;;;;;;;4.60;1.88;;;6.30;99.90;;;;;;5036545;28;20536;-72
2022/12/06 12:06:17;;;;;;;6.05;2.00;;;6.40;99.90;;;;;;5045704;28;20438;-75
2022/12/06 12:09:06;;;;;;;5.47;2.00;;;6.40;99.90;;;;;;5052797;28;20401;-72
2022/12/06 12:11:36;;;;;;;4.30;2.15;;;6.50;99.90;;;;;;5038279;28;20116;-73
2022/12/06 12:14:06;;;;;;;4.82;2.20;;;6.50;99.90;;;;;;5053253;28;20052;-72
2022/12/06 12:16:41;;;;;;;7.60;2.30;;;6.50;99.90;;;;;;5050348;28;20045;-73
2022/12/06 12:19:28;;;;;;;4.50;1.92;;;6.40;99.90;;;;;;5053315;28;20039;-74
2022/12/06 12:21:58;;;;;;;4.57;1.98;;;6.40;99.90;;;;;;5056649;28;20041;-74
2022/12/06 12:24:45;;;;;;;4.57;2.00;;;6.40;99.90;;;;;;5050752;28;20037;-75
2022/12/06 12:27:39;;;;;;;7.25;2.25;;;6.40;99.90;;;;;;5056647;28;20052;-73
2022/12/06 12:30:13;;;;;;;6.32;2.00;;;6.40;99.90;;;;;;5051565;28;20496;-74
2022/12/06 12:32:39;;;;;;;4.88;2.00;;;6.40;99.90;;;;;;5041157;28;20048;-74
2022/12/06 12:35:20;;;;;;;7.80;2.00;;;6.30;99.90;;;;;;5052324;28;20039;-74
2022/12/06 12:37:55;;;;;;;4.88;2.03;;;6.40;99.90;;;;;;5037842;28;20041;-74
2022/12/06 12:40:22;;;;;;;5.05;2.00;;;6.30;99.90;;;;;;5053186;28;20039;-74
2022/12/06 12:42:59;;;;;;;6.72;2.08;;;6.30;99.90;;;;;;5061153;28;20063;-74
2022/12/06 12:45:28;;;;;;;4.80;2.00;;;6.30;99.90;;;;;;5053224;28;20048;-74
2022/12/06 12:47:59;;;;;;;7.68;1.95;;;6.30;99.90;;;;;;5042975;28;20120;-74
2022/12/06 12:50:26;;;;;;;5.20;1.92;;;6.30;99.90;;;;;;5052170;28;20084;-74
2022/12/06 12:52:52;;;;;;;4.60;1.88;;;6.30;99.90;;;;;;5035113;28;20059;-74
2022/12/06 12:55:18;;;;;;;7.00;1.85;;;6.30;99.90;;;;;;5052875;28;20124;-74
2022/12/06 12:57:55;;;;;;;5.15;2.03;;;6.30;99.90;;;;;;5036746;28;20141;-74
2022/12/06 13:00:23;;;;;;;5.97;1.92;;;6.30;99.90;;;;;;5052513;28;20116;-74
2022/12/06 13:02:59;;;;;;;4.40;1.73;;;6.40;99.90;;;;;;5066370;28;20443;-74
2022/12/06 13:05:31;;;;;;;4.93;1.85;;;6.30;99.90;;;;;;5038867;28;20501;-74
2022/12/06 13:08:17;;;;;;;5.90;1.92;;;6.40;99.90;;;;;;5044628;28;20382;-74
2022/12/06 13:10:48;;;;;;;5.45;2.05;;;6.50;99.90;;;;;;5040691;28;20048;-74
2022/12/06 13:13:20;;;;;;;6.40;2.00;;;6.40;99.90;;;;;;5039154;28;20087;-74
2022/12/06 13:15:49;;;;;;;4.50;1.95;;;6.50;99.90;;;;;;5052159;28;20051;-74
2022/12/06 13:18:37;;;;;;;4.70;1.55;;;6.50;99.90;;;;;;5035705;28;20037;-74
2022/12/06 13:21:19;;;;;;;5.85;1.90;;;6.40;99.90;;;;;;5032311;28;20038;-74
2022/12/06 13:23:49;;;;;;;5.22;2.00;;;6.40;99.90;;;;;;5022947;28;20036;-73
2022/12/06 13:26:25;;;;;;;5.35;1.77;;;6.30;99.90;;;;;;5068707;28;20042;-73
2022/12/06 13:28:59;;;;;;;5.80;1.80;;;6.30;99.90;;;;;;5035379;28;20040;-73
2022/12/06 13:31:32;;;;;;;5.55;2.10;;;6.30;99.90;;;;;;5068756;28;20102;-74
2022/12/06 13:34:01;;;;;;;6.28;1.75;;;6.30;99.90;;;;;;5070060;28;20053;-70
2022/12/06 13:36:31;;;;;;;5.43;1.80;;;6.30;99.90;;;;;;5062613;28;20033;-70